createdAt,value
2022-10-05T06:05:47.709Z,84.41
2022-10-05T06:08:59.663Z,84.06
2022-10-05T06:12:14.840Z,84.38
2022-10-05T06:20:27.811Z,87.24
2022-10-05T06:24:09.223Z,89.39
2022-10-05T06:27:35.665Z,89.55
2022-10-05T06:30:55.265Z,90.18
2022-10-05T06:34:17.925Z,89.74
2022-10-05T06:37:43.758Z,89.48
2022-10-05T06:41:12.840Z,89.96
2022-10-05T06:44:48.850Z,90.40
2022-10-05T06:48:40.648Z,89.24
2022-10-05T06:52:09.303Z,87.63
2022-10-05T06:55:34.849Z,85.91
2022-10-05T06:59:00.498Z,86.20
2022-10-05T07:02:29.081Z,82.84
2022-10-05T07:05:45.850Z,78.29
2022-10-05T07:09:19.933Z,77.96
2022-10-05T07:12:57.870Z,74.52
2022-10-05T07:16:32.911Z,72.89
2022-10-05T07:19:41.210Z,75.35
2022-10-05T07:23:17.045Z,75.42
2022-10-05T07:26:34.656Z,73.55
2022-10-05T07:30:02.977Z,72.97
2022-10-05T07:33:34.243Z,73.15
2022-10-05T07:37:06.752Z,74.94
2022-10-05T07:40:26.472Z,72.50
2022-10-05T07:44:20.108Z,70.54
2022-10-05T07:47:38.739Z,71.60
2022-10-05T07:51:05.899Z,71.02
2022-10-05T07:54:28.315Z,71.87
2022-10-05T07:57:50.444Z,73.59
2022-10-05T08:01:21.975Z,73.21
2022-10-05T08:04:42.368Z,73.17
2022-10-05T08:07:59.312Z,71.92
2022-10-05T08:11:14.686Z,72.88
2022-10-05T08:14:33.830Z,73.19
2022-10-05T08:17:46.089Z,71.11
2022-10-05T08:20:57.616Z,70.76
2022-10-05T08:24:11.403Z,68.96
2022-10-05T08:27:46.965Z,67.53
2022-10-05T08:31:19.226Z,68.24
2022-10-05T08:34:40.456Z,67.18
2022-10-05T08:37:44.872Z,65.38
2022-10-05T08:45:26.968Z,65.45
2022-10-05T08:48:46.028Z,65.12
2022-10-05T08:52:12.694Z,65.65
2022-10-05T08:55:28.891Z,65.95
2022-10-05T08:58:49.539Z,67.20
2022-10-05T09:02:19.774Z,63.84
2022-10-05T09:05:52.165Z,65.25
2022-10-05T09:09:20.832Z,61.46
2022-10-05T09:12:33.048Z,63.48
2022-10-05T09:16:01.712Z,64.80
2022-10-05T09:19:34.750Z,65.50
2022-10-05T09:22:58.621Z,63.83
2022-10-05T09:26:47.768Z,64.82
2022-10-05T09:30:16.969Z,65.45
2022-10-05T09:33:49.598Z,62.33
2022-10-05T09:37:26.615Z,64.48
2022-10-05T09:41:08.540Z,66.22
2022-10-05T09:44:20.945Z,65.73
2022-10-05T09:48:00.003Z,64.65
2022-10-05T09:51:50.315Z,62.71
2022-10-05T09:55:31.008Z,61.75
2022-10-05T09:59:08.907Z,63.10
2022-10-05T10:02:32.235Z,63.95
2022-10-05T10:06:03.882Z,61.32
2022-10-05T10:09:21.182Z,63.67
2022-10-05T10:12:30.198Z,63.91
2022-10-05T10:15:38.460Z,63.41
2022-10-05T10:19:01.078Z,62.16
2022-10-05T10:22:17.748Z,63.59
2022-10-05T10:26:01.806Z,63.18
2022-10-05T10:29:32.001Z,62.85
2022-10-05T10:33:02.263Z,62.16
2022-10-05T10:36:17.062Z,61.23
2022-10-05T10:39:38.909Z,60.89
2022-10-05T10:42:41.833Z,60.36
2022-10-05T10:46:24.178Z,60.79
2022-10-05T10:49:57.775Z,61.07
2022-10-05T10:53:28.011Z,61.61
2022-10-05T10:57:10.772Z,62.78
2022-10-05T11:00:55.724Z,63.91
2022-10-05T11:04:13.934Z,63.95
2022-10-05T11:07:45.012Z,64.65
2022-10-05T11:11:03.554Z,63.49
2022-10-05T11:14:44.267Z,63.47
2022-10-05T11:18:10.070Z,63.20
2022-10-05T11:21:30.743Z,62.49
2022-10-05T11:24:39.034Z,62.04
2022-10-05T11:28:18.975Z,62.30
2022-10-05T11:31:40.706Z,61.79
2022-10-05T11:35:04.858Z,61.46
2022-10-05T11:38:18.157Z,61.69
2022-10-05T11:41:33.043Z,63.16
2022-10-05T11:45:01.984Z,61.22
2022-10-05T11:48:29.375Z,61.28
2022-10-05T11:51:41.890Z,61.22
2022-10-05T11:55:16.655Z,59.90
2022-10-05T11:58:38.980Z,59.75
2022-10-05T12:02:01.859Z,59.32
2022-10-05T12:05:29.254Z,58.58
2022-10-05T12:08:45.980Z,59.39
2022-10-05T12:12:10.952Z,58.54
2022-10-05T12:15:31.927Z,57.30
2022-10-05T12:18:39.855Z,57.34
2022-10-05T12:22:04.452Z,58.04
2022-10-05T12:25:27.813Z,57.41
2022-10-05T12:28:53.899Z,57.21
2022-10-05T12:32:13.765Z,57.09
2022-10-05T12:35:49.653Z,57.65
2022-10-05T12:38:56.275Z,56.75
2022-10-05T12:42:22.034Z,57.20
2022-10-05T12:45:54.876Z,57.28
2022-10-05T12:49:34.173Z,56.68
2022-10-05T12:52:50.454Z,56.87
2022-10-05T12:56:04.726Z,56.49
2022-10-05T12:59:30.977Z,56.77
2022-10-05T13:02:45.712Z,57.10
2022-10-05T13:06:08.357Z,57.30
2022-10-05T13:09:29.911Z,56.99
2022-10-05T13:12:59.921Z,57.10
2022-10-05T13:16:17.244Z,57.73
2022-10-05T13:19:34.905Z,56.56
2022-10-05T13:22:48.817Z,57.01
2022-10-05T13:26:13.016Z,57.57
2022-10-05T13:29:40.515Z,56.82
2022-10-05T13:33:00.964Z,57.26
2022-10-05T13:36:43.004Z,58.22
2022-10-05T13:40:16.681Z,58.50
2022-10-05T13:47:36.292Z,58.71
2022-10-05T13:51:31.812Z,58.74
2022-10-05T13:55:27.198Z,58.77
2022-10-05T13:59:03.602Z,59.88
2022-10-05T14:02:34.781Z,58.93
2022-10-05T14:05:59.173Z,59.06
2022-10-05T14:09:33.803Z,58.26
2022-10-05T14:12:43.750Z,58.63
2022-10-05T14:16:12.721Z,60.20
2022-10-05T14:19:34.147Z,61.14
2022-10-05T14:23:24.863Z,60.60
2022-10-05T14:26:35.573Z,59.48
2022-10-05T14:30:03.867Z,58.49
2022-10-05T14:33:18.952Z,59.00
2022-10-05T14:36:44.794Z,59.42
2022-10-05T14:40:03.353Z,59.06
2022-10-05T14:43:17.979Z,59.28
2022-10-05T14:46:29.336Z,59.35
2022-10-05T14:50:11.805Z,59.07
2022-10-05T14:53:25.889Z,59.31
2022-10-05T14:56:56.591Z,59.70
2022-10-05T15:00:19.993Z,59.88
2022-10-05T15:03:42.232Z,60.50
2022-10-05T15:06:58.459Z,60.58
2022-10-05T15:10:33.698Z,61.77
2022-10-05T15:13:49.740Z,61.89
2022-10-05T15:17:04.896Z,61.92
2022-10-05T15:20:27.810Z,62.62
2022-10-05T15:23:51.978Z,63.30
2022-10-05T15:27:34.868Z,63.67
2022-10-05T15:31:07.217Z,64.94
2022-10-05T15:34:38.391Z,65.49
2022-10-05T15:38:05.799Z,65.94
2022-10-05T15:41:25.201Z,66.07
2022-10-05T15:45:33.119Z,66.07
2022-10-05T15:49:23.242Z,66.31
2022-10-05T15:52:44.932Z,66.84
2022-10-05T15:55:52.896Z,66.82
2022-10-05T15:59:18.806Z,66.95
2022-10-05T16:02:30.015Z,67.08
2022-10-05T16:10:43.157Z,68.73
2022-10-05T16:14:31.774Z,71.11
2022-10-05T16:17:54.899Z,70.79
2022-10-05T16:21:33.655Z,72.36
2022-10-05T16:25:58.748Z,70.77
2022-10-05T16:29:55.604Z,70.94
2022-10-05T16:33:18.037Z,70.94
2022-10-05T16:37:07.056Z,71.65
2022-10-05T16:45:44.797Z,74.77
2022-10-05T16:53:30.642Z,76.27
2022-10-05T16:57:07.987Z,76.48
2022-10-05T17:00:26.127Z,77.33
2022-10-05T17:04:13.157Z,77.90
2022-10-05T17:07:53.108Z,78.87
2022-10-05T17:11:41.904Z,80.11
2022-10-05T17:15:32.368Z,80.51
2022-10-05T17:19:01.027Z,80.22
2022-10-05T17:22:40.348Z,79.98
2022-10-05T17:25:57.873Z,80.09
2022-10-05T17:29:30.021Z,79.41
2022-10-05T17:33:13.706Z,80.36
2022-10-05T17:36:22.835Z,80.47
2022-10-05T17:39:59.820Z,81.00
2022-10-05T17:44:21.990Z,81.21
2022-10-05T17:48:19.221Z,81.76
2022-10-05T17:52:16.705Z,81.75
2022-10-05T17:55:53.653Z,82.18
2022-10-05T17:59:18.799Z,82.33
2022-10-05T18:02:58.486Z,83.01
2022-10-05T18:06:25.160Z,83.59
2022-10-05T18:10:30.030Z,84.05
2022-10-05T18:13:56.019Z,83.81
2022-10-05T18:17:45.592Z,83.86
2022-10-05T18:21:15.827Z,84.25
2022-10-05T18:24:55.949Z,84.94
2022-10-05T18:28:18.856Z,85.76
2022-10-05T18:31:34.394Z,86.05
2022-10-05T18:35:03.247Z,86.12
2022-10-05T18:38:53.938Z,86.04
2022-10-05T18:42:29.124Z,85.94
2022-10-05T18:46:13.091Z,85.79
2022-10-05T18:50:25.691Z,86.12
2022-10-05T18:53:58.884Z,85.87
2022-10-05T18:57:32.698Z,85.79
2022-10-05T19:01:12.388Z,85.51
2022-10-05T19:04:53.236Z,85.81
2022-10-05T19:13:16.772Z,87.55
2022-10-05T19:16:31.793Z,88.23
2022-10-05T19:19:44.753Z,88.24
2022-10-05T19:22:48.544Z,87.59
2022-10-05T19:26:15.950Z,87.08
2022-10-05T19:29:47.710Z,86.94
2022-10-05T19:33:24.257Z,86.85
2022-10-05T19:36:56.726Z,87.27
2022-10-05T19:40:27.599Z,87.11
2022-10-05T19:44:06.968Z,86.82
2022-10-05T19:47:37.543Z,87.18
2022-10-05T19:50:59.999Z,86.70
2022-10-05T19:54:21.894Z,87.35
2022-10-05T19:57:35.115Z,88.42
2022-10-05T20:00:47.226Z,88.21
2022-10-05T20:03:58.132Z,87.51
2022-10-05T20:07:02.523Z,87.07
2022-10-05T20:10:30.832Z,87.15
2022-10-05T20:13:36.777Z,87.50
2022-10-05T20:18:09.061Z,87.46
2022-10-05T20:22:00.107Z,87.72
2022-10-05T20:25:14.251Z,87.31
2022-10-05T20:28:33.725Z,87.37
2022-10-05T20:31:37.266Z,86.56
2022-10-05T20:34:42.929Z,86.95
2022-10-05T20:38:11.660Z,87.19
2022-10-05T20:41:16.634Z,87.42
2022-10-05T20:44:21.033Z,87.01
2022-10-05T20:47:28.196Z,86.94
2022-10-05T20:51:08.791Z,87.12
2022-10-05T20:54:11.936Z,87.29
2022-10-05T20:57:27.912Z,88.41
2022-10-05T21:00:54.922Z,88.49
2022-10-05T21:03:59.685Z,89.20
2022-10-05T21:07:07.144Z,88.85
2022-10-05T21:10:11.741Z,88.59
2022-10-05T21:13:18.579Z,88.34
2022-10-05T21:16:25.040Z,88.57
2022-10-05T21:19:29.538Z,88.64
2022-10-05T21:22:32.888Z,88.37
2022-10-05T21:25:37.155Z,88.33
2022-10-05T21:28:41.813Z,88.22
2022-10-05T21:31:45.935Z,88.69
2022-10-05T21:34:53.191Z,88.67
2022-10-05T21:37:58.018Z,88.63
2022-10-05T21:41:05.236Z,88.62
2022-10-05T21:44:32.128Z,88.47
2022-10-05T21:47:35.225Z,88.52
2022-10-05T21:50:39.924Z,88.57
2022-10-05T21:53:49.815Z,88.81
2022-10-05T21:56:55.804Z,88.86
2022-10-05T22:00:06.653Z,88.94
2022-10-05T22:03:10.237Z,88.80
2022-10-05T22:06:13.627Z,88.96
2022-10-05T22:09:18.898Z,89.54
2022-10-05T22:12:24.474Z,89.14
2022-10-05T22:15:31.380Z,89.16
2022-10-05T22:18:35.343Z,89.33
2022-10-05T22:21:41.911Z,89.46
2022-10-05T22:24:44.881Z,89.37
2022-10-05T22:27:49.937Z,89.47
2022-10-05T22:30:53.352Z,89.49
2022-10-05T22:33:56.470Z,90.00
2022-10-05T22:37:03.213Z,89.96
2022-10-05T22:40:13.173Z,90.48
2022-10-05T22:43:20.047Z,90.78
2022-10-05T22:46:23.502Z,90.29
2022-10-05T22:49:26.881Z,89.89
2022-10-05T22:52:29.632Z,90.62
2022-10-05T22:55:34.176Z,90.67
2022-10-05T22:58:37.732Z,90.59
2022-10-05T23:01:40.845Z,90.81
2022-10-05T23:04:43.476Z,90.52
2022-10-05T23:07:47.216Z,90.45
2022-10-05T23:10:52.623Z,90.26
2022-10-05T23:13:57.021Z,90.51
2022-10-05T23:17:00.054Z,90.87
2022-10-05T23:20:05.837Z,90.72
2022-10-05T23:23:08.703Z,90.57
2022-10-05T23:26:12.368Z,90.87
2022-10-05T23:29:15.575Z,90.57
2022-10-05T23:32:18.859Z,90.81
2022-10-05T23:35:22.065Z,91.22
2022-10-05T23:38:26.801Z,91.50
2022-10-05T23:41:34.641Z,91.58
